Marie — FAA3182 — position and weather

sailwx.info

Track history (hours):
 
Tides and Currents Weather Stations Pressure Air Temp Water Temp Dewpoint Dewpoint Depression Visibility Wind Speed Wind Dir Waves Ship Positions

Marie

Last reported at 2017-Sep-15 13:53 UTC. Time now 2017-Sep-23 16:41 UTC.
Position N 47°29' W 002°33'.
Warning: this ship's position is 8 days out of date.

Type: Sailing vessel. MMSI: 227110020.

Date/timePositionNaut miles runAvg speedWind from/ knotsBaromVisibWave heightAir tempDewpointWater temp
2017-Sep-15 13:53N 47°29' W 002°33'3 6.8
2017-Sep-15 13:28N 47°28' W 002°37'3 5.7
2017-Sep-15 12:58N 47°27' W 002°41'13 5.1
2017-Sep-15 10:25N 47°23' W 002°59'3 7.1
2017-Sep-15 09:59N 47°24' W 003°03'4 7.4
2017-Sep-15 09:30N 47°26' W 003°08'4 7.3
2017-Sep-15 09:00N 47°27' W 003°13'4 7.1
2017-Sep-15 08:30N 47°29' W 003°18'4 7.2
2017-Sep-15 08:00N 47°32' W 003°21'4 7.2
2017-Sep-15 07:30N 47°35' W 003°24'4 7.4
2017-Sep-15 07:00N 47°38' W 003°23'4 7.0
2017-Sep-15 06:30N 47°42' W 003°22'1 1.7
2017-Sep-15 05:58N 47°43' W 003°21'0 0.0
2017-Sep-15 05:28N 47°43' W 003°21'0 0.0
2017-Sep-15 04:58N 47°43' W 003°21'0 0.0
2017-Sep-15 04:28N 47°43' W 003°21'0 0.0
2017-Sep-15 03:58N 47°43' W 003°21'0 0.0
2017-Sep-15 03:28N 47°43' W 003°21'0 0.0
2017-Sep-15 02:58N 47°43' W 003°21'0 0.0
2017-Sep-15 02:28N 47°43' W 003°21'0 0.0
2017-Sep-15 01:55N 47°43' W 003°21'0 0.0
2017-Sep-15 01:28N 47°43' W 003°21'0 0.0
2017-Sep-15 00:58N 47°43' W 003°21'0 0.0
2017-Sep-15 00:28N 47°43' W 003°21'0 0.0
2017-Sep-14 23:58N 47°43' W 003°21'0 0.0
2017-Sep-14 23:28N 47°43' W 003°21'0 0.0
2017-Sep-14 22:58N 47°43' W 003°21'0 0.0
2017-Sep-14 22:28N 47°43' W 003°21'0 0.0
2017-Sep-14 21:58N 47°43' W 003°21'0 0.0
2017-Sep-14 21:28N 47°43' W 003°21'0 0.0
2017-Sep-14 20:58N 47°43' W 003°21'0 0.0
2017-Sep-14 20:28N 47°43' W 003°21'0 0.0
2017-Sep-14 19:58N 47°43' W 003°21'0 0.0
2017-Sep-14 19:28N 47°43' W 003°21'0 0.0
2017-Sep-14 18:58N 47°43' W 003°21'0 0.0
2017-Sep-14 18:28N 47°43' W 003°21'0 0.0
2017-Sep-14 17:58N 47°43' W 003°21'0 0.0
2017-Sep-14 17:25N 47°43' W 003°21'0 0.0
2017-Sep-14 16:58N 47°43' W 003°21'0 0.0
2017-Sep-14 16:28N 47°43' W 003°21'0 0.0
2017-Sep-14 15:58N 47°43' W 003°21'0 0.0
2017-Sep-14 15:28N 47°43' W 003°21'0 0.0
2017-Sep-14 14:58N 47°43' W 003°21'0 0.0
2017-Sep-14 14:28N 47°43' W 003°21'0 0.0
2017-Sep-14 13:58N 47°43' W 003°21'0 0.0
2017-Sep-14 13:28N 47°43' W 003°21'0 0.0
2017-Sep-14 12:58N 47°43' W 003°21'0 0.0
2017-Sep-14 12:28N 47°43' W 003°21'0 0.0
2017-Sep-14 11:58N 47°43' W 003°21'0 0.0
2017-Sep-14 11:28N 47°43' W 003°21'0 0.0
2017-Sep-14 10:58N 47°43' W 003°21'0 0.0
2017-Sep-14 10:28N 47°43' W 003°21'0 0.0
2017-Sep-14 09:58N 47°43' W 003°21'0 0.0
2017-Sep-14 09:28N 47°43' W 003°21'0 0.1
2017-Sep-14 09:00N 47°43' W 003°21'2 4.5
2017-Sep-14 08:30N 47°41' W 003°24'3 5.4
2017-Sep-14 08:00N 47°39' W 003°26'1 1.1
2017-Sep-14 07:30N 47°39' W 003°27'0 0.0
2017-Sep-14 06:57N 47°39' W 003°27'0 0.0
2017-Sep-14 06:30N 47°39' W 003°27'0 0.0
2017-Sep-14 06:00N 47°39' W 003°27'0 0.0
2017-Sep-14 05:30N 47°39' W 003°27'0 0.0
2017-Sep-14 05:00N 47°39' W 003°27'0 0.0
2017-Sep-14 04:30N 47°39' W 003°27'0 0.0
2017-Sep-14 04:00N 47°39' W 003°27'0 0.0
2017-Sep-14 03:21N 47°39' W 003°27'0 0.0
2017-Sep-14 03:00N 47°39' W 003°27'0 0.0
2017-Sep-14 02:30N 47°39' W 003°27'0 0.0
2017-Sep-14 02:00N 47°39' W 003°27'0 0.0
2017-Sep-14 01:30N 47°39' W 003°27'0 0.0
2017-Sep-14 01:00N 47°39' W 003°27'0 0.0
2017-Sep-14 00:30N 47°39' W 003°27'0 0.0
2017-Sep-14 00:00N 47°39' W 003°27'0 0.0
2017-Sep-13 23:30N 47°39' W 003°27'0 0.0
2017-Sep-13 23:00N 47°39' W 003°27'0 0.0
2017-Sep-13 22:30N 47°39' W 003°27'0 0.0
2017-Sep-13 22:00N 47°39' W 003°27'0 0.0
2017-Sep-13 21:30N 47°39' W 003°27'0 0.0
2017-Sep-13 20:57N 47°39' W 003°27'0 0.0
2017-Sep-13 20:30N 47°39' W 003°27'0 0.0
2017-Sep-13 20:00N 47°39' W 003°27'0 0.0
2017-Sep-13 19:27N 47°39' W 003°27'0 0.0
2017-Sep-13 19:00N 47°39' W 003°27'0 0.0
2017-Sep-13 18:27N 47°39' W 003°27'0 0.0
2017-Sep-13 18:00N 47°39' W 003°27'0 0.0
2017-Sep-13 17:30N 47°39' W 003°27'0 0.0
2017-Sep-13 17:00N 47°39' W 003°27'0 0.0
2017-Sep-13 16:30N 47°39' W 003°27'0 0.0
2017-Sep-13 15:57N 47°39' W 003°27'0 0.0
2017-Sep-13 15:30N 47°39' W 003°27'0 0.0
2017-Sep-13 15:00N 47°39' W 003°27'0 0.0
2017-Sep-13 14:30N 47°39' W 003°27'0 0.0
2017-Sep-13 14:00N 47°39' W 003°27'0 0.0
2017-Sep-13 13:30N 47°39' W 003°27'0 0.0
2017-Sep-13 13:00N 47°39' W 003°27'0 0.0
2017-Sep-13 12:30N 47°39' W 003°27'0 0.0
2017-Sep-13 12:00N 47°39' W 003°27'0 0.0
2017-Sep-13 11:30N 47°39' W 003°27'0 0.0
2017-Sep-13 10:57N 47°39' W 003°27'0 0.0
2017-Sep-13 10:27N 47°39' W 003°27'0 0.0
2017-Sep-13 10:00N 47°39' W 003°27'0 0.0
2017-Sep-13 09:30N 47°39' W 003°27'0 0.0
2017-Sep-13 09:00N 47°39' W 003°27'0 0.0
2017-Sep-13 08:30N 47°39' W 003°27'0 0.0
2017-Sep-13 08:00N 47°39' W 003°27'0 0.0
2017-Sep-13 07:30N 47°39' W 003°27'0 0.0
2017-Sep-13 07:00N 47°39' W 003°27'0 0.0
2017-Sep-13 06:30N 47°39' W 003°27'0 0.0
2017-Sep-13 06:00N 47°39' W 003°27'0 0.0
2017-Sep-13 05:30N 47°39' W 003°27'0 0.0
2017-Sep-13 04:57N 47°39' W 003°27'0 0.0
2017-Sep-13 04:30N 47°39' W 003°27'0 0.0
2017-Sep-13 04:00N 47°39' W 003°27'0 0.0
2017-Sep-13 03:30N 47°39' W 003°27'0 0.0
2017-Sep-13 03:00N 47°39' W 003°27'0 0.0
2017-Sep-13 02:30N 47°39' W 003°27'0 0.0
2017-Sep-13 02:00N 47°39' W 003°27'0 0.0
2017-Sep-13 01:30N 47°39' W 003°27'0 0.0
2017-Sep-13 01:00N 47°39' W 003°27'0 0.0
2017-Sep-13 00:30N 47°39' W 003°27'0 0.0
2017-Sep-13 00:00N 47°39' W 003°27'0 0.0
2017-Sep-12 23:30N 47°39' W 003°27'0 0.0
2017-Sep-12 23:00N 47°39' W 003°27'0 0.0
2017-Sep-12 22:30N 47°39' W 003°27'0 0.0
2017-Sep-12 22:00N 47°39' W 003°27'0 0.0
2017-Sep-12 21:30N 47°39' W 003°27'0 0.0
2017-Sep-12 21:00N 47°39' W 003°27'0 0.0
2017-Sep-12 20:30N 47°39' W 003°27'0 0.0
2017-Sep-12 20:00N 47°39' W 003°27'0 0.0
2017-Sep-12 19:30N 47°39' W 003°27'0 0.0
2017-Sep-12 19:00N 47°39' W 003°27'0 0.0
2017-Sep-12 18:30N 47°39' W 003°27'0 0.0
2017-Sep-12 18:00N 47°39' W 003°27'0 0.0
2017-Sep-12 17:30N 47°39' W 003°27'0 0.0
2017-Sep-12 17:00N 47°39' W 003°27'0 0.0
2017-Sep-12 16:30N 47°39' W 003°27'0 0.0
2017-Sep-12 16:00N 47°39' W 003°27'0 0.0
2017-Sep-12 15:30N 47°39' W 003°27'0 0.0
2017-Sep-12 15:00N 47°39' W 003°27'0 0.0
2017-Sep-12 14:30N 47°39' W 003°27'0 0.0
2017-Sep-12 14:00N 47°39' W 003°27'0 0.0
2017-Sep-12 13:30N 47°39' W 003°27'0 0.0
2017-Sep-12 12:57N 47°39' W 003°27'1 1.9
2017-Sep-12 12:30N 47°39' W 003°26'3 5.9
2017-Sep-12 12:00N 47°36' W 003°25'4 7.5
2017-Sep-12 11:30N 47°33' W 003°23'4 7.5
2017-Sep-12 11:00N 47°29' W 003°21'3 6.5
2017-Sep-12 10:30N 47°26' W 003°19'3 5.7
2017-Sep-12 09:59N 47°24' W 003°16'2 4.8
2017-Sep-12 09:30N 47°23' W 003°13'  
2017-Sep-08 09:56N 46°31' W 002°01'3 7.2
2017-Sep-08 09:30N 46°29' W 001°57'3 6.5
2017-Sep-08 09:00N 46°28' W 001°53'3 6.8
2017-Sep-08 08:30N 46°26' W 001°49'10 0.2
2017-Sep-06 13:48N 46°20' W 001°37'2 6.9
2017-Sep-06 13:30N 46°22' W 001°39'3 6.9
2017-Sep-06 13:00N 46°24' W 001°43'3 6.8
2017-Sep-06 12:30N 46°26' W 001°47'3 6.6
2017-Sep-06 12:00N 46°28' W 001°51'3 6.2
2017-Sep-06 11:30N 46°30' W 001°54'2 4.7
2017-Sep-06 11:00N 46°32' W 001°55'3 4.7
2017-Sep-06 10:24N 46°35' W 001°56'  
Track history (hours):
 
Tides and Currents Weather Stations Pressure Air Temp Water Temp Dewpoint Dewpoint Depression Visibility Wind Speed Wind Dir Waves Ship Positions

Marie

Last reported at 2017-Sep-15 13:53 UTC. Time now 2017-Sep-23 16:41 UTC.
Position N 47°29' W 002°33'.
Warning: this ship's position is 8 days out of date.

Type: Sailing vessel. MMSI: 227110020.

Date/timePositionNaut miles runAvg speedWind from/ knotsBaromVisibWave heightAir tempDewpointWater temp
2017-Sep-15 13:53N 47°29' W 002°33'3 6.8
2017-Sep-15 13:28N 47°28' W 002°37'3 5.7
2017-Sep-15 12:58N 47°27' W 002°41'13 5.1
2017-Sep-15 10:25N 47°23' W 002°59'3 7.1
2017-Sep-15 09:59N 47°24' W 003°03'4 7.4
2017-Sep-15 09:30N 47°26' W 003°08'4 7.3
2017-Sep-15 09:00N 47°27' W 003°13'4 7.1
2017-Sep-15 08:30N 47°29' W 003°18'4 7.2
2017-Sep-15 08:00N 47°32' W 003°21'4 7.2
2017-Sep-15 07:30N 47°35' W 003°24'4 7.4
2017-Sep-15 07:00N 47°38' W 003°23'4 7.0
2017-Sep-15 06:30N 47°42' W 003°22'1 1.7
2017-Sep-15 05:58N 47°43' W 003°21'0 0.0
2017-Sep-15 05:28N 47°43' W 003°21'0 0.0
2017-Sep-15 04:58N 47°43' W 003°21'0 0.0
2017-Sep-15 04:28N 47°43' W 003°21'0 0.0
2017-Sep-15 03:58N 47°43' W 003°21'0 0.0
2017-Sep-15 03:28N 47°43' W 003°21'0 0.0
2017-Sep-15 02:58N 47°43' W 003°21'0 0.0
2017-Sep-15 02:28N 47°43' W 003°21'0 0.0
2017-Sep-15 01:55N 47°43' W 003°21'0 0.0
2017-Sep-15 01:28N 47°43' W 003°21'0 0.0
2017-Sep-15 00:58N 47°43' W 003°21'0 0.0
2017-Sep-15 00:28N 47°43' W 003°21'0 0.0
2017-Sep-14 23:58N 47°43' W 003°21'0 0.0
2017-Sep-14 23:28N 47°43' W 003°21'0 0.0
2017-Sep-14 22:58N 47°43' W 003°21'0 0.0
2017-Sep-14 22:28N 47°43' W 003°21'0 0.0
2017-Sep-14 21:58N 47°43' W 003°21'0 0.0
2017-Sep-14 21:28N 47°43' W 003°21'0 0.0
2017-Sep-14 20:58N 47°43' W 003°21'0 0.0
2017-Sep-14 20:28N 47°43' W 003°21'0 0.0
2017-Sep-14 19:58N 47°43' W 003°21'0 0.0
2017-Sep-14 19:28N 47°43' W 003°21'0 0.0
2017-Sep-14 18:58N 47°43' W 003°21'0 0.0
2017-Sep-14 18:28N 47°43' W 003°21'0 0.0
2017-Sep-14 17:58N 47°43' W 003°21'0 0.0
2017-Sep-14 17:25N 47°43' W 003°21'0 0.0
2017-Sep-14 16:58N 47°43' W 003°21'0 0.0
2017-Sep-14 16:28N 47°43' W 003°21'0 0.0
2017-Sep-14 15:58N 47°43' W 003°21'0 0.0
2017-Sep-14 15:28N 47°43' W 003°21'0 0.0
2017-Sep-14 14:58N 47°43' W 003°21'0 0.0
2017-Sep-14 14:28N 47°43' W 003°21'0 0.0
2017-Sep-14 13:58N 47°43' W 003°21'0 0.0
2017-Sep-14 13:28N 47°43' W 003°21'0 0.0
2017-Sep-14 12:58N 47°43' W 003°21'0 0.0
2017-Sep-14 12:28N 47°43' W 003°21'0 0.0
2017-Sep-14 11:58N 47°43' W 003°21'0 0.0
2017-Sep-14 11:28N 47°43' W 003°21'0 0.0
2017-Sep-14 10:58N 47°43' W 003°21'0 0.0
2017-Sep-14 10:28N 47°43' W 003°21'0 0.0
2017-Sep-14 09:58N 47°43' W 003°21'0 0.0
2017-Sep-14 09:28N 47°43' W 003°21'0 0.1
2017-Sep-14 09:00N 47°43' W 003°21'2 4.5
2017-Sep-14 08:30N 47°41' W 003°24'3 5.4
2017-Sep-14 08:00N 47°39' W 003°26'1 1.1
2017-Sep-14 07:30N 47°39' W 003°27'0 0.0
2017-Sep-14 06:57N 47°39' W 003°27'0 0.0
2017-Sep-14 06:30N 47°39' W 003°27'0 0.0
2017-Sep-14 06:00N 47°39' W 003°27'0 0.0
2017-Sep-14 05:30N 47°39' W 003°27'0 0.0
2017-Sep-14 05:00N 47°39' W 003°27'0 0.0
2017-Sep-14 04:30N 47°39' W 003°27'0 0.0
2017-Sep-14 04:00N 47°39' W 003°27'0 0.0
2017-Sep-14 03:21N 47°39' W 003°27'0 0.0
2017-Sep-14 03:00N 47°39' W 003°27'0 0.0
2017-Sep-14 02:30N 47°39' W 003°27'0 0.0
2017-Sep-14 02:00N 47°39' W 003°27'0 0.0
2017-Sep-14 01:30N 47°39' W 003°27'0 0.0
2017-Sep-14 01:00N 47°39' W 003°27'0 0.0
2017-Sep-14 00:30N 47°39' W 003°27'0 0.0
2017-Sep-14 00:00N 47°39' W 003°27'0 0.0
2017-Sep-13 23:30N 47°39' W 003°27'0 0.0
2017-Sep-13 23:00N 47°39' W 003°27'0 0.0
2017-Sep-13 22:30N 47°39' W 003°27'0 0.0
2017-Sep-13 22:00N 47°39' W 003°27'0 0.0
2017-Sep-13 21:30N 47°39' W 003°27'0 0.0
2017-Sep-13 20:57N 47°39' W 003°27'0 0.0
2017-Sep-13 20:30N 47°39' W 003°27'0 0.0
2017-Sep-13 20:00N 47°39' W 003°27'0 0.0
2017-Sep-13 19:27N 47°39' W 003°27'0 0.0
2017-Sep-13 19:00N 47°39' W 003°27'0 0.0
2017-Sep-13 18:27N 47°39' W 003°27'0 0.0
2017-Sep-13 18:00N 47°39' W 003°27'0 0.0
2017-Sep-13 17:30N 47°39' W 003°27'0 0.0
2017-Sep-13 17:00N 47°39' W 003°27'0 0.0
2017-Sep-13 16:30N 47°39' W 003°27'0 0.0
2017-Sep-13 15:57N 47°39' W 003°27'0 0.0
2017-Sep-13 15:30N 47°39' W 003°27'0 0.0
2017-Sep-13 15:00N 47°39' W 003°27'0 0.0
2017-Sep-13 14:30N 47°39' W 003°27'0 0.0
2017-Sep-13 14:00N 47°39' W 003°27'0 0.0
2017-Sep-13 13:30N 47°39' W 003°27'0 0.0
2017-Sep-13 13:00N 47°39' W 003°27'0 0.0
2017-Sep-13 12:30N 47°39' W 003°27'0 0.0
2017-Sep-13 12:00N 47°39' W 003°27'0 0.0
2017-Sep-13 11:30N 47°39' W 003°27'0 0.0
2017-Sep-13 10:57N 47°39' W 003°27'0 0.0
2017-Sep-13 10:27N 47°39' W 003°27'0 0.0
2017-Sep-13 10:00N 47°39' W 003°27'0 0.0
2017-Sep-13 09:30N 47°39' W 003°27'0 0.0
2017-Sep-13 09:00N 47°39' W 003°27'0 0.0
2017-Sep-13 08:30N 47°39' W 003°27'0 0.0
2017-Sep-13 08:00N 47°39' W 003°27'0 0.0
2017-Sep-13 07:30N 47°39' W 003°27'0 0.0
2017-Sep-13 07:00N 47°39' W 003°27'0 0.0
2017-Sep-13 06:30N 47°39' W 003°27'0 0.0
2017-Sep-13 06:00N 47°39' W 003°27'0 0.0
2017-Sep-13 05:30N 47°39' W 003°27'0 0.0
2017-Sep-13 04:57N 47°39' W 003°27'0 0.0
2017-Sep-13 04:30N 47°39' W 003°27'0 0.0
2017-Sep-13 04:00N 47°39' W 003°27'0 0.0
2017-Sep-13 03:30N 47°39' W 003°27'0 0.0
2017-Sep-13 03:00N 47°39' W 003°27'0 0.0
2017-Sep-13 02:30N 47°39' W 003°27'0 0.0
2017-Sep-13 02:00N 47°39' W 003°27'0 0.0
2017-Sep-13 01:30N 47°39' W 003°27'0 0.0
2017-Sep-13 01:00N 47°39' W 003°27'0 0.0
2017-Sep-13 00:30N 47°39' W 003°27'0 0.0
2017-Sep-13 00:00N 47°39' W 003°27'0 0.0
2017-Sep-12 23:30N 47°39' W 003°27'0 0.0
2017-Sep-12 23:00N 47°39' W 003°27'0 0.0
2017-Sep-12 22:30N 47°39' W 003°27'0 0.0
2017-Sep-12 22:00N 47°39' W 003°27'0 0.0
2017-Sep-12 21:30N 47°39' W 003°27'0 0.0
2017-Sep-12 21:00N 47°39' W 003°27'0 0.0
2017-Sep-12 20:30N 47°39' W 003°27'0 0.0
2017-Sep-12 20:00N 47°39' W 003°27'0 0.0
2017-Sep-12 19:30N 47°39' W 003°27'0 0.0
2017-Sep-12 19:00N 47°39' W 003°27'0 0.0
2017-Sep-12 18:30N 47°39' W 003°27'0 0.0
2017-Sep-12 18:00N 47°39' W 003°27'0 0.0
2017-Sep-12 17:30N 47°39' W 003°27'0 0.0
2017-Sep-12 17:00N 47°39' W 003°27'0 0.0
2017-Sep-12 16:30N 47°39' W 003°27'0 0.0
2017-Sep-12 16:00N 47°39' W 003°27'0 0.0
2017-Sep-12 15:30N 47°39' W 003°27'0 0.0
2017-Sep-12 15:00N 47°39' W 003°27'0 0.0
2017-Sep-12 14:30N 47°39' W 003°27'0 0.0
2017-Sep-12 14:00N 47°39' W 003°27'0 0.0
2017-Sep-12 13:30N 47°39' W 003°27'0 0.0
2017-Sep-12 12:57N 47°39' W 003°27'1 1.9
2017-Sep-12 12:30N 47°39' W 003°26'3 5.9
2017-Sep-12 12:00N 47°36' W 003°25'4 7.5
2017-Sep-12 11:30N 47°33' W 003°23'4 7.5
2017-Sep-12 11:00N 47°29' W 003°21'3 6.5
2017-Sep-12 10:30N 47°26' W 003°19'3 5.7
2017-Sep-12 09:59N 47°24' W 003°16'2 4.8
2017-Sep-12 09:30N 47°23' W 003°13'  
2017-Sep-08 09:56N 46°31' W 002°01'3 7.2
2017-Sep-08 09:30N 46°29' W 001°57'3 6.5
2017-Sep-08 09:00N 46°28' W 001°53'3 6.8
2017-Sep-08 08:30N 46°26' W 001°49'10 0.2
2017-Sep-06 13:48N 46°20' W 001°37'2 6.9
2017-Sep-06 13:30N 46°22' W 001°39'3 6.9
2017-Sep-06 13:00N 46°24' W 001°43'3 6.8
2017-Sep-06 12:30N 46°26' W 001°47'3 6.6
2017-Sep-06 12:00N 46°28' W 001°51'3 6.2
2017-Sep-06 11:30N 46°30' W 001°54'2 4.7
2017-Sep-06 11:00N 46°32' W 001°55'3 4.7
2017-Sep-06 10:24N 46°35' W 001°56'  

Dump ship's entire track history